TimeCDT,TemperatureF,Dew PointF,Humidity,Sea Level PressureIn,VisibilityMPH,Wind Direction,Wind SpeedMPH,Gust SpeedMPH,PrecipitationIn,Events,Conditions,WindDirDegrees,DateUTC
12:15 AM,79.2,71.6,78,30.17,7.0,South,8.1,-,N/A,,Clear,170,2013-07-18 05:15:00
12:35 AM,78.8,71.6,78,30.17,7.0,South,6.9,-,N/A,,Clear,180,2013-07-18 05:35:00
12:55 AM,78.3,71.6,80,30.16,7.0,South,5.8,-,N/A,,Clear,170,2013-07-18 05:55:00
1:15 AM,78.6,71.6,79,30.17,7.0,South,6.9,-,N/A,,Clear,180,2013-07-18 06:15:00
1:35 AM,78.3,71.6,80,30.17,10.0,South,8.1,-,N/A,,Clear,170,2013-07-18 06:35:00
1:55 AM,77.9,71.6,81,30.16,7.0,South,5.8,-,N/A,,Clear,170,2013-07-18 06:55:00
2:15 AM,77.5,71.4,81,30.16,7.0,SSE,3.5,-,N/A,,Clear,160,2013-07-18 07:15:00
2:35 AM,76.5,71.2,84,30.16,5.0,South,4.6,-,N/A,,Haze,170,2013-07-18 07:35:00
2:55 AM,76.6,71.2,83,30.16,5.0,South,5.8,-,N/A,,Haze,170,2013-07-18 07:55:00
3:15 AM,76.1,71.1,84,30.16,5.0,South,5.8,-,N/A,,Haze,170,2013-07-18 08:15:00
3:35 AM,76.1,71.2,85,30.15,4.0,South,4.6,-,N/A,,Haze,180,2013-07-18 08:35:00
3:55 AM,76.1,71.2,85,30.14,5.0,South,6.9,-,N/A,,Haze,180,2013-07-18 08:55:00
4:15 AM,76.1,71.2,85,30.14,4.0,South,5.8,-,N/A,,Haze,180,2013-07-18 09:15:00
4:35 AM,76.1,71.2,85,30.14,4.0,South,5.8,-,N/A,,Haze,180,2013-07-18 09:35:00
4:55 AM,75.4,71.1,86,30.13,3.0,South,5.8,-,N/A,,Clear,190,2013-07-18 09:55:00
5:15 AM,74.5,70.7,88,30.12,10.0,South,4.6,-,N/A,,Clear,190,2013-07-18 10:15:00
5:35 AM,73.6,70.7,91,30.12,10.0,SSW,3.5,-,N/A,,Clear,200,2013-07-18 10:35:00
5:55 AM,73.6,70.7,91,30.12,10.0,South,5.8,-,N/A,,Clear,190,2013-07-18 10:55:00
6:15 AM,72.9,70.3,92,30.12,10.0,South,4.6,-,N/A,,Clear,190,2013-07-18 11:15:00
6:35 AM,74.1,71.1,90,30.12,10.0,South,5.8,-,N/A,,Clear,190,2013-07-18 11:35:00
6:55 AM,75.2,71.6,89,30.12,10.0,South,5.8,-,N/A,,Clear,190,2013-07-18 11:55:00
7:15 AM,76.1,71.8,86,30.12,10.0,SSW,4.6,-,N/A,,Clear,200,2013-07-18 12:15:00
7:35 AM,77.4,71.8,83,30.11,10.0,SSW,8.1,-,N/A,,Clear,200,2013-07-18 12:35:00
7:55 AM,79.0,71.6,78,30.11,10.0,South,8.1,-,N/A,,Clear,190,2013-07-18 12:55:00
8:15 AM,80.4,71.2,73,30.11,10.0,SSW,9.2,-,N/A,,Clear,200,2013-07-18 13:15:00
8:35 AM,81.9,71.1,70,30.11,10.0,SSW,10.4,-,N/A,,Clear,210,2013-07-18 13:35:00
8:55 AM,82.9,70.5,66,30.11,10.0,SSW,11.5,18.4,N/A,,Clear,210,2013-07-18 13:55:00
9:15 AM,84.2,70.9,64,30.10,10.0,SSW,10.4,-,N/A,,Clear,210,2013-07-18 14:15:00
9:35 AM,85.1,70.7,62,30.09,10.0,SSW,10.4,17.3,N/A,,Clear,210,2013-07-18 14:35:00
9:55 AM,86.5,70.7,59,30.09,10.0,SSW,11.5,-,N/A,,Clear,210,2013-07-18 14:55:00
10:15 AM,87.6,70.5,57,30.08,10.0,SW,12.7,19.6,N/A,,Clear,220,2013-07-18 15:15:00
10:35 AM,88.3,69.3,53,30.09,10.0,SW,16.1,23.0,N/A,,Clear,220,2013-07-18 15:35:00
10:55 AM,89.1,69.1,52,30.08,10.0,SSW,13.8,20.7,N/A,,Clear,210,2013-07-18 15:55:00
11:15 AM,89.8,69.1,50,30.07,10.0,SSW,17.3,23.0,N/A,,Clear,200,2013-07-18 16:15:00
11:35 AM,90.3,68.7,49,30.06,10.0,SW,13.8,17.3,N/A,,Clear,230,2013-07-18 16:35:00
11:55 AM,90.7,68.9,49,30.06,10.0,SW,18.4,23.0,N/A,,Clear,220,2013-07-18 16:55:00
12:15 PM,90.9,66.9,45,30.05,10.0,SSW,16.1,23.0,N/A,,Clear,210,2013-07-18 17:15:00
12:35 PM,91.6,66.7,44,30.04,10.0,SW,19.6,26.5,N/A,,Clear,220,2013-07-18 17:35:00
12:55 PM,92.3,66.2,42,30.03,10.0,SSW,18.4,23.0,N/A,,Clear,200,2013-07-18 17:55:00
1:15 PM,92.3,66.6,43,30.03,10.0,SW,16.1,21.9,N/A,,Clear,220,2013-07-18 18:15:00
1:35 PM,92.5,66.9,43,30.02,10.0,SW,16.1,24.2,N/A,,Scattered Clouds,220,2013-07-18 18:35:00
1:55 PM,93.0,66.4,41,30.01,10.0,SSW,16.1,23.0,N/A,,Scattered Clouds,200,2013-07-18 18:55:00
2:15 PM,93.7,65.8,40,30.01,10.0,SW,18.4,24.2,N/A,,Scattered Clouds,230,2013-07-18 19:15:00
2:35 PM,93.7,65.7,39,30.00,10.0,SW,16.1,25.3,N/A,,Clear,220,2013-07-18 19:35:00
2:55 PM,93.9,65.5,39,29.99,10.0,SW,18.4,-,N/A,,Scattered Clouds,220,2013-07-18 19:55:00
3:15 PM,94.3,64.9,38,29.99,10.0,SW,21.9,27.6,N/A,,Scattered Clouds,220,2013-07-18 20:15:00
3:35 PM,93.6,65.5,39,29.99,10.0,SSW,18.4,21.9,N/A,,Scattered Clouds,210,2013-07-18 20:35:00
3:55 PM,94.1,64.4,37,29.98,10.0,SSW,18.4,25.3,N/A,,Scattered Clouds,200,2013-07-18 20:55:00
4:15 PM,94.8,64.6,37,29.97,10.0,SSW,18.4,23.0,N/A,,Clear,210,2013-07-18 21:15:00
5:35 PM,94.3,65.1,38,29.94,10.0,SSW,18.4,25.3,N/A,,Scattered Clouds,200,2013-07-18 22:35:00
5:55 PM,93.9,65.7,39,29.94,10.0,SSW,19.6,25.3,N/A,,Scattered Clouds,200,2013-07-18 22:55:00
6:15 PM,93.2,65.3,40,29.92,10.0,SSW,17.3,25.3,N/A,,Scattered Clouds,210,2013-07-18 23:15:00
6:35 PM,92.7,64.8,40,29.92,10.0,SW,17.3,26.5,N/A,,Clear,220,2013-07-18 23:35:00
6:55 PM,92.3,65.5,41,29.92,10.0,SW,16.1,21.9,N/A,,Clear,220,2013-07-18 23:55:00
7:15 PM,91.6,65.5,42,29.92,10.0,SW,17.3,23.0,N/A,,Clear,230,2013-07-19 00:15:00
7:35 PM,90.7,66.4,45,29.91,10.0,SW,11.5,19.6,N/A,,Clear,220,2013-07-19 00:35:00
7:55 PM,90.0,66.9,46,29.92,10.0,SW,10.4,-,N/A,,Clear,220,2013-07-19 00:55:00
8:15 PM,88.3,67.5,50,29.91,10.0,SSW,10.4,-,N/A,,Clear,210,2013-07-19 01:15:00
8:35 PM,87.4,67.3,51,29.91,10.0,SSW,8.1,-,N/A,,Clear,200,2013-07-19 01:35:00
8:55 PM,86.0,68.0,55,29.91,10.0,South,8.1,-,N/A,,Clear,180,2013-07-19 01:55:00
9:15 PM,84.9,68.4,57,29.90,10.0,South,6.9,-,N/A,,Clear,190,2013-07-19 02:15:00
9:35 PM,84.2,68.9,60,29.90,10.0,South,8.1,-,N/A,,Clear,190,2013-07-19 02:35:00
9:55 PM,83.5,68.4,60,29.90,10.0,South,6.9,-,N/A,,Clear,190,2013-07-19 02:55:00
10:15 PM,83.3,68.2,60,29.91,10.0,SSW,6.9,-,N/A,,Clear,200,2013-07-19 03:15:00
10:35 PM,82.9,68.2,61,29.90,10.0,SSW,9.2,-,N/A,,Clear,200,2013-07-19 03:35:00
10:55 PM,82.8,68.0,61,29.90,10.0,SSW,9.2,-,N/A,,Clear,200,2013-07-19 03:55:00
11:15 PM,82.6,67.8,61,29.90,10.0,SSW,8.1,-,N/A,,Clear,200,2013-07-19 04:15:00
11:35 PM,82.4,67.5,60,29.90,10.0,SSW,9.2,-,N/A,,Clear,200,2013-07-19 04:35:00
11:55 PM,82.4,67.3,60,29.90,10.0,SSW,9.2,-,N/A,,Clear,200,2013-07-19 04:55:00